sensor_id;sensor_type;location;lat;lon;timestamp;P1;durP1;ratioP1;P2;durP2;ratioP2
16731;SDS011;8484;50.904;9.192;2023-09-19T00:00:25;1.17;;;0.80;;
16731;SDS011;8484;50.904;9.192;2023-09-19T00:03:03;0.93;;;0.70;;
16731;SDS011;8484;50.904;9.192;2023-09-19T00:05:33;2.90;;;0.80;;
16731;SDS011;8484;50.904;9.192;2023-09-19T00:08:01;1.30;;;0.80;;
16731;SDS011;8484;50.904;9.192;2023-09-19T00:10:29;0.60;;;0.60;;
16731;SDS011;8484;50.904;9.192;2023-09-19T00:13:00;0.70;;;0.50;;
16731;SDS011;8484;50.904;9.192;2023-09-19T00:15:31;1.10;;;0.60;;
16731;SDS011;8484;50.904;9.192;2023-09-19T00:18:04;0.70;;;0.70;;
16731;SDS011;8484;50.904;9.192;2023-09-19T00:20:31;0.60;;;0.60;;
16731;SDS011;8484;50.904;9.192;2023-09-19T00:23:00;0.90;;;0.53;;
16731;SDS011;8484;50.904;9.192;2023-09-19T00:25:33;1.07;;;0.53;;
16731;SDS011;8484;50.904;9.192;2023-09-19T00:28:02;1.53;;;0.50;;
16731;SDS011;8484;50.904;9.192;2023-09-19T00:30:29;1.20;;;0.80;;
16731;SDS011;8484;50.904;9.192;2023-09-19T00:32:56;0.60;;;0.60;;
16731;SDS011;8484;50.904;9.192;2023-09-19T00:35:25;1.47;;;0.70;;
16731;SDS011;8484;50.904;9.192;2023-09-19T00:37:52;1.27;;;0.70;;
16731;SDS011;8484;50.904;9.192;2023-09-19T00:40:20;0.93;;;0.70;;
16731;SDS011;8484;50.904;9.192;2023-09-19T00:42:48;1.13;;;0.73;;
16731;SDS011;8484;50.904;9.192;2023-09-19T00:45:16;0.73;;;0.57;;
16731;SDS011;8484;50.904;9.192;2023-09-19T00:47:46;1.17;;;0.70;;
16731;SDS011;8484;50.904;9.192;2023-09-19T00:50:16;0.70;;;0.63;;
16731;SDS011;8484;50.904;9.192;2023-09-19T00:52:45;0.60;;;0.57;;
16731;SDS011;8484;50.904;9.192;2023-09-19T00:55:15;1.17;;;0.63;;
16731;SDS011;8484;50.904;9.192;2023-09-19T00:57:44;1.37;;;0.50;;
16731;SDS011;8484;50.904;9.192;2023-09-19T01:00:12;0.90;;;0.60;;
16731;SDS011;8484;50.904;9.192;2023-09-19T01:02:41;0.63;;;0.63;;
16731;SDS011;8484;50.904;9.192;2023-09-19T01:05:09;1.33;;;0.50;;
16731;SDS011;8484;50.904;9.192;2023-09-19T01:07:37;0.60;;;0.60;;
16731;SDS011;8484;50.904;9.192;2023-09-19T01:10:07;0.93;;;0.63;;
16731;SDS011;8484;50.904;9.192;2023-09-19T01:12:44;0.60;;;0.60;;
16731;SDS011;8484;50.904;9.192;2023-09-19T01:15:20;1.00;;;0.60;;
16731;SDS011;8484;50.904;9.192;2023-09-19T01:17:57;0.90;;;0.80;;
16731;SDS011;8484;50.904;9.192;2023-09-19T01:20:34;0.50;;;0.50;;
16731;SDS011;8484;50.904;9.192;2023-09-19T01:23:10;0.80;;;0.70;;
16731;SDS011;8484;50.904;9.192;2023-09-19T01:28:52;2.37;;;0.87;;
16731;SDS011;8484;50.904;9.192;2023-09-19T01:31:22;0.77;;;0.70;;
16731;SDS011;8484;50.904;9.192;2023-09-19T01:33:58;3.17;;;0.80;;
16731;SDS011;8484;50.904;9.192;2023-09-19T01:36:26;1.60;;;0.80;;
16731;SDS011;8484;50.904;9.192;2023-09-19T01:38:55;0.63;;;0.57;;
16731;SDS011;8484;50.904;9.192;2023-09-19T01:41:31;1.03;;;0.63;;
16731;SDS011;8484;50.904;9.192;2023-09-19T01:44:05;1.87;;;0.90;;
16731;SDS011;8484;50.904;9.192;2023-09-19T01:46:38;1.13;;;0.73;;
16731;SDS011;8484;50.904;9.192;2023-09-19T01:49:09;0.70;;;0.63;;
16731;SDS011;8484;50.904;9.192;2023-09-19T01:51:46;1.10;;;0.80;;
16731;SDS011;8484;50.904;9.192;2023-09-19T01:54:24;1.77;;;0.70;;
16731;SDS011;8484;50.904;9.192;2023-09-19T01:56:57;2.27;;;0.90;;
16731;SDS011;8484;50.904;9.192;2023-09-19T01:59:31;0.97;;;0.80;;
16731;SDS011;8484;50.904;9.192;2023-09-19T02:02:04;1.90;;;0.70;;
16731;SDS011;8484;50.904;9.192;2023-09-19T02:04:33;2.20;;;0.93;;
16731;SDS011;8484;50.904;9.192;2023-09-19T02:07:01;2.23;;;0.70;;
16731;SDS011;8484;50.904;9.192;2023-09-19T02:09:30;1.47;;;0.70;;
16731;SDS011;8484;50.904;9.192;2023-09-19T02:11:58;2.13;;;0.80;;
16731;SDS011;8484;50.904;9.192;2023-09-19T02:14:25;1.40;;;0.73;;
16731;SDS011;8484;50.904;9.192;2023-09-19T02:16:54;2.30;;;0.80;;
16731;SDS011;8484;50.904;9.192;2023-09-19T02:19:23;2.13;;;0.70;;
16731;SDS011;8484;50.904;9.192;2023-09-19T02:21:49;1.40;;;0.73;;
16731;SDS011;8484;50.904;9.192;2023-09-19T02:24:17;2.23;;;0.70;;
16731;SDS011;8484;50.904;9.192;2023-09-19T02:26:44;0.90;;;0.57;;
16731;SDS011;8484;50.904;9.192;2023-09-19T02:29:12;0.83;;;0.73;;
16731;SDS011;8484;50.904;9.192;2023-09-19T02:31:39;1.23;;;0.70;;
16731;SDS011;8484;50.904;9.192;2023-09-19T02:34:09;1.30;;;0.73;;
16731;SDS011;8484;50.904;9.192;2023-09-19T02:36:37;1.47;;;0.70;;
16731;SDS011;8484;50.904;9.192;2023-09-19T02:39:04;1.27;;;0.67;;
16731;SDS011;8484;50.904;9.192;2023-09-19T02:41:33;2.93;;;0.70;;
16731;SDS011;8484;50.904;9.192;2023-09-19T02:44:00;1.50;;;0.70;;
16731;SDS011;8484;50.904;9.192;2023-09-19T02:46:27;1.23;;;0.80;;
16731;SDS011;8484;50.904;9.192;2023-09-19T02:48:55;1.50;;;0.90;;
16731;SDS011;8484;50.904;9.192;2023-09-19T02:51:22;1.47;;;0.80;;
16731;SDS011;8484;50.904;9.192;2023-09-19T02:53:50;2.50;;;1.03;;
16731;SDS011;8484;50.904;9.192;2023-09-19T02:56:19;2.40;;;1.00;;
16731;SDS011;8484;50.904;9.192;2023-09-19T02:58:47;1.80;;;1.00;;
16731;SDS011;8484;50.904;9.192;2023-09-19T03:01:15;1.30;;;0.80;;
16731;SDS011;8484;50.904;9.192;2023-09-19T03:03:43;3.23;;;1.07;;
16731;SDS011;8484;50.904;9.192;2023-09-19T03:06:11;1.60;;;1.10;;
16731;SDS011;8484;50.904;9.192;2023-09-19T03:08:38;1.50;;;0.90;;
16731;SDS011;8484;50.904;9.192;2023-09-19T03:11:08;2.23;;;1.30;;
16731;SDS011;8484;50.904;9.192;2023-09-19T03:13:37;2.07;;;0.90;;
16731;SDS011;8484;50.904;9.192;2023-09-19T03:16:05;1.23;;;0.90;;
16731;SDS011;8484;50.904;9.192;2023-09-19T03:18:31;1.40;;;1.00;;
16731;SDS011;8484;50.904;9.192;2023-09-19T03:21:00;0.83;;;0.80;;
16731;SDS011;8484;50.904;9.192;2023-09-19T03:23:27;1.00;;;0.90;;
16731;SDS011;8484;50.904;9.192;2023-09-19T03:25:55;1.63;;;0.90;;
16731;SDS011;8484;50.904;9.192;2023-09-19T03:28:25;2.07;;;1.10;;
16731;SDS011;8484;50.904;9.192;2023-09-19T03:30:59;2.47;;;1.07;;
16731;SDS011;8484;50.904;9.192;2023-09-19T03:33:26;1.77;;;1.03;;
16731;SDS011;8484;50.904;9.192;2023-09-19T03:35:53;1.13;;;0.70;;
16731;SDS011;8484;50.904;9.192;2023-09-19T03:38:23;3.70;;;1.00;;
16731;SDS011;8484;50.904;9.192;2023-09-19T03:40:50;4.50;;;1.20;;
16731;SDS011;8484;50.904;9.192;2023-09-19T03:43:17;4.53;;;1.00;;
16731;SDS011;8484;50.904;9.192;2023-09-19T03:45:45;1.13;;;0.80;;
16731;SDS011;8484;50.904;9.192;2023-09-19T03:48:13;2.20;;;0.90;;
16731;SDS011;8484;50.904;9.192;2023-09-19T03:50:40;2.40;;;0.90;;
16731;SDS011;8484;50.904;9.192;2023-09-19T03:53:09;1.13;;;0.70;;
16731;SDS011;8484;50.904;9.192;2023-09-19T03:55:36;4.17;;;0.77;;
16731;SDS011;8484;50.904;9.192;2023-09-19T03:58:03;0.87;;;0.60;;
16731;SDS011;8484;50.904;9.192;2023-09-19T04:00:31;1.70;;;0.80;;
16731;SDS011;8484;50.904;9.192;2023-09-19T04:03:00;3.07;;;1.13;;
16731;SDS011;8484;50.904;9.192;2023-09-19T04:05:31;3.33;;;1.07;;
16731;SDS011;8484;50.904;9.192;2023-09-19T04:07:57;1.47;;;0.80;;
16731;SDS011;8484;50.904;9.192;2023-09-19T04:10:24;1.00;;;0.90;;
16731;SDS011;8484;50.904;9.192;2023-09-19T04:12:53;1.33;;;0.70;;
16731;SDS011;8484;50.904;9.192;2023-09-19T04:15:21;1.33;;;0.80;;
16731;SDS011;8484;50.904;9.192;2023-09-19T04:17:54;1.77;;;0.90;;
16731;SDS011;8484;50.904;9.192;2023-09-19T04:20:22;1.13;;;0.83;;
16731;SDS011;8484;50.904;9.192;2023-09-19T04:22:49;1.87;;;1.00;;
16731;SDS011;8484;50.904;9.192;2023-09-19T04:25:16;2.00;;;1.20;;
16731;SDS011;8484;50.904;9.192;2023-09-19T04:27:43;2.10;;;1.00;;
16731;SDS011;8484;50.904;9.192;2023-09-19T04:30:11;1.90;;;0.97;;
16731;SDS011;8484;50.904;9.192;2023-09-19T04:32:39;1.80;;;0.90;;
16731;SDS011;8484;50.904;9.192;2023-09-19T04:35:07;3.40;;;1.13;;
16731;SDS011;8484;50.904;9.192;2023-09-19T04:37:38;1.87;;;0.80;;
16731;SDS011;8484;50.904;9.192;2023-09-19T04:40:06;3.83;;;1.10;;
16731;SDS011;8484;50.904;9.192;2023-09-19T04:42:38;5.63;;;1.30;;
16731;SDS011;8484;50.904;9.192;2023-09-19T04:45:06;1.90;;;0.97;;
16731;SDS011;8484;50.904;9.192;2023-09-19T04:47:34;2.13;;;0.90;;
16731;SDS011;8484;50.904;9.192;2023-09-19T04:50:04;3.30;;;1.00;;
16731;SDS011;8484;50.904;9.192;2023-09-19T04:52:33;3.37;;;1.00;;
16731;SDS011;8484;50.904;9.192;2023-09-19T04:55:01;2.50;;;1.00;;
16731;SDS011;8484;50.904;9.192;2023-09-19T04:57:29;2.10;;;0.97;;
16731;SDS011;8484;50.904;9.192;2023-09-19T04:59:57;2.50;;;0.90;;
16731;SDS011;8484;50.904;9.192;2023-09-19T05:02:24;3.63;;;1.00;;
16731;SDS011;8484;50.904;9.192;2023-09-19T05:04:51;3.43;;;1.30;;
16731;SDS011;8484;50.904;9.192;2023-09-19T05:07:18;2.20;;;1.00;;
16731;SDS011;8484;50.904;9.192;2023-09-19T05:09:47;2.90;;;1.20;;
16731;SDS011;8484;50.904;9.192;2023-09-19T05:12:15;2.07;;;0.97;;
16731;SDS011;8484;50.904;9.192;2023-09-19T05:14:43;3.60;;;1.37;;
16731;SDS011;8484;50.904;9.192;2023-09-19T05:17:10;3.90;;;1.20;;
16731;SDS011;8484;50.904;9.192;2023-09-19T05:19:37;2.57;;;0.90;;
16731;SDS011;8484;50.904;9.192;2023-09-19T05:22:04;2.10;;;1.07;;
16731;SDS011;8484;50.904;9.192;2023-09-19T05:24:32;2.00;;;1.03;;
16731;SDS011;8484;50.904;9.192;2023-09-19T05:26:58;2.30;;;0.97;;
16731;SDS011;8484;50.904;9.192;2023-09-19T05:29:27;2.17;;;0.93;;
16731;SDS011;8484;50.904;9.192;2023-09-19T05:31:54;3.63;;;1.23;;
16731;SDS011;8484;50.904;9.192;2023-09-19T05:34:21;4.60;;;1.43;;
16731;SDS011;8484;50.904;9.192;2023-09-19T05:36:47;3.07;;;1.10;;
16731;SDS011;8484;50.904;9.192;2023-09-19T05:39:15;3.23;;;1.40;;
16731;SDS011;8484;50.904;9.192;2023-09-19T05:41:41;3.50;;;1.50;;
16731;SDS011;8484;50.904;9.192;2023-09-19T05:44:08;4.90;;;1.50;;
16731;SDS011;8484;50.904;9.192;2023-09-19T05:46:37;3.17;;;1.20;;
16731;SDS011;8484;50.904;9.192;2023-09-19T05:49:03;3.63;;;1.10;;
16731;SDS011;8484;50.904;9.192;2023-09-19T05:51:30;3.30;;;1.40;;
16731;SDS011;8484;50.904;9.192;2023-09-19T05:53:57;2.63;;;0.93;;
16731;SDS011;8484;50.904;9.192;2023-09-19T05:56:24;3.80;;;1.23;;
16731;SDS011;8484;50.904;9.192;2023-09-19T05:58:52;3.97;;;1.23;;
16731;SDS011;8484;50.904;9.192;2023-09-19T06:01:19;2.73;;;1.10;;
16731;SDS011;8484;50.904;9.192;2023-09-19T06:03:47;2.43;;;1.00;;
16731;SDS011;8484;50.904;9.192;2023-09-19T06:06:14;4.07;;;1.30;;
16731;SDS011;8484;50.904;9.192;2023-09-19T06:08:41;3.53;;;1.43;;
16731;SDS011;8484;50.904;9.192;2023-09-19T06:11:10;2.77;;;1.30;;
16731;SDS011;8484;50.904;9.192;2023-09-19T06:13:36;2.73;;;1.13;;
16731;SDS011;8484;50.904;9.192;2023-09-19T06:16:05;3.60;;;1.57;;
16731;SDS011;8484;50.904;9.192;2023-09-19T06:18:34;4.50;;;1.37;;
16731;SDS011;8484;50.904;9.192;2023-09-19T06:21:02;4.43;;;1.63;;
16731;SDS011;8484;50.904;9.192;2023-09-19T06:23:32;4.80;;;1.47;;
16731;SDS011;8484;50.904;9.192;2023-09-19T06:26:00;4.20;;;1.30;;
16731;SDS011;8484;50.904;9.192;2023-09-19T06:28:27;3.87;;;1.17;;
16731;SDS011;8484;50.904;9.192;2023-09-19T06:30:54;3.90;;;1.30;;
16731;SDS011;8484;50.904;9.192;2023-09-19T06:33:22;3.70;;;1.60;;
16731;SDS011;8484;50.904;9.192;2023-09-19T06:35:49;4.00;;;1.50;;
16731;SDS011;8484;50.904;9.192;2023-09-19T06:38:20;4.17;;;1.67;;
16731;SDS011;8484;50.904;9.192;2023-09-19T06:40:46;2.60;;;1.30;;
16731;SDS011;8484;50.904;9.192;2023-09-19T06:43:13;6.30;;;1.80;;
16731;SDS011;8484;50.904;9.192;2023-09-19T06:45:40;3.10;;;1.50;;
16731;SDS011;8484;50.904;9.192;2023-09-19T06:48:07;3.60;;;1.30;;
16731;SDS011;8484;50.904;9.192;2023-09-19T06:50:35;5.97;;;1.50;;
16731;SDS011;8484;50.904;9.192;2023-09-19T06:53:03;4.77;;;1.37;;
16731;SDS011;8484;50.904;9.192;2023-09-19T06:55:32;3.73;;;1.20;;
16731;SDS011;8484;50.904;9.192;2023-09-19T06:57:59;2.90;;;1.30;;
16731;SDS011;8484;50.904;9.192;2023-09-19T07:00:26;3.30;;;1.43;;
16731;SDS011;8484;50.904;9.192;2023-09-19T07:02:57;4.37;;;1.30;;
16731;SDS011;8484;50.904;9.192;2023-09-19T07:05:26;3.80;;;1.13;;
16731;SDS011;8484;50.904;9.192;2023-09-19T07:07:54;4.77;;;1.30;;
16731;SDS011;8484;50.904;9.192;2023-09-19T07:10:21;5.00;;;1.20;;
16731;SDS011;8484;50.904;9.192;2023-09-19T07:13:03;2.50;;;1.10;;
16731;SDS011;8484;50.904;9.192;2023-09-19T07:15:32;4.63;;;1.40;;
16731;SDS011;8484;50.904;9.192;2023-09-19T07:18:04;4.57;;;1.33;;
16731;SDS011;8484;50.904;9.192;2023-09-19T07:20:31;2.33;;;1.00;;
16731;SDS011;8484;50.904;9.192;2023-09-19T07:22:59;1.30;;;0.87;;
16731;SDS011;8484;50.904;9.192;2023-09-19T07:25:27;3.53;;;1.17;;
16731;SDS011;8484;50.904;9.192;2023-09-19T07:27:54;1.63;;;0.83;;
16731;SDS011;8484;50.904;9.192;2023-09-19T07:30:23;2.97;;;1.10;;
16731;SDS011;8484;50.904;9.192;2023-09-19T07:32:51;4.13;;;1.23;;
16731;SDS011;8484;50.904;9.192;2023-09-19T07:35:18;1.97;;;1.00;;
16731;SDS011;8484;50.904;9.192;2023-09-19T07:37:45;2.57;;;1.07;;
16731;SDS011;8484;50.904;9.192;2023-09-19T07:40:14;2.97;;;1.23;;
16731;SDS011;8484;50.904;9.192;2023-09-19T07:42:41;1.67;;;0.80;;
16731;SDS011;8484;50.904;9.192;2023-09-19T07:45:09;2.47;;;0.90;;
16731;SDS011;8484;50.904;9.192;2023-09-19T07:47:43;4.13;;;1.20;;
16731;SDS011;8484;50.904;9.192;2023-09-19T07:50:10;3.30;;;1.07;;
16731;SDS011;8484;50.904;9.192;2023-09-19T07:52:37;2.17;;;0.90;;
16731;SDS011;8484;50.904;9.192;2023-09-19T07:55:05;2.03;;;0.90;;
16731;SDS011;8484;50.904;9.192;2023-09-19T07:57:36;4.00;;;0.83;;
16731;SDS011;8484;50.904;9.192;2023-09-19T08:00:03;3.50;;;1.10;;
16731;SDS011;8484;50.904;9.192;2023-09-19T08:02:34;2.00;;;0.93;;
16731;SDS011;8484;50.904;9.192;2023-09-19T08:05:04;3.10;;;1.10;;
16731;SDS011;8484;50.904;9.192;2023-09-19T08:07:32;2.17;;;1.00;;
16731;SDS011;8484;50.904;9.192;2023-09-19T08:10:01;3.10;;;1.03;;
16731;SDS011;8484;50.904;9.192;2023-09-19T08:12:28;2.10;;;1.10;;
16731;SDS011;8484;50.904;9.192;2023-09-19T08:14:56;2.73;;;0.87;;
16731;SDS011;8484;50.904;9.192;2023-09-19T08:17:23;2.80;;;1.17;;
16731;SDS011;8484;50.904;9.192;2023-09-19T08:19:50;4.07;;;1.07;;
16731;SDS011;8484;50.904;9.192;2023-09-19T08:22:22;2.47;;;1.00;;
16731;SDS011;8484;50.904;9.192;2023-09-19T08:24:49;2.60;;;1.13;;
16731;SDS011;8484;50.904;9.192;2023-09-19T08:27:16;2.03;;;1.30;;
16731;SDS011;8484;50.904;9.192;2023-09-19T08:29:44;3.47;;;1.10;;
16731;SDS011;8484;50.904;9.192;2023-09-19T08:32:12;3.97;;;1.27;;
16731;SDS011;8484;50.904;9.192;2023-09-19T08:34:40;3.00;;;1.03;;
16731;SDS011;8484;50.904;9.192;2023-09-19T08:37:07;2.90;;;0.90;;
16731;SDS011;8484;50.904;9.192;2023-09-19T08:39:36;1.73;;;1.00;;
16731;SDS011;8484;50.904;9.192;2023-09-19T08:42:03;2.20;;;1.10;;
16731;SDS011;8484;50.904;9.192;2023-09-19T08:44:31;2.93;;;1.13;;
16731;SDS011;8484;50.904;9.192;2023-09-19T08:47:10;1.93;;;1.00;;
16731;SDS011;8484;50.904;9.192;2023-09-19T08:49:41;2.97;;;0.93;;
16731;SDS011;8484;50.904;9.192;2023-09-19T08:52:20;2.10;;;1.00;;
16731;SDS011;8484;50.904;9.192;2023-09-19T08:54:53;3.17;;;1.00;;
16731;SDS011;8484;50.904;9.192;2023-09-19T08:57:27;2.03;;;1.00;;
16731;SDS011;8484;50.904;9.192;2023-09-19T08:59:55;3.30;;;1.10;;
16731;SDS011;8484;50.904;9.192;2023-09-19T09:02:25;2.27;;;1.00;;
16731;SDS011;8484;50.904;9.192;2023-09-19T09:04:54;1.60;;;0.90;;
16731;SDS011;8484;50.904;9.192;2023-09-19T09:07:23;2.13;;;0.90;;
16731;SDS011;8484;50.904;9.192;2023-09-19T09:09:53;1.40;;;0.90;;
16731;SDS011;8484;50.904;9.192;2023-09-19T09:12:20;3.43;;;0.90;;
16731;SDS011;8484;50.904;9.192;2023-09-19T09:14:48;3.40;;;1.00;;
16731;SDS011;8484;50.904;9.192;2023-09-19T09:17:15;2.83;;;0.90;;
16731;SDS011;8484;50.904;9.192;2023-09-19T09:19:45;3.17;;;1.00;;
16731;SDS011;8484;50.904;9.192;2023-09-19T09:22:12;1.43;;;0.90;;
16731;SDS011;8484;50.904;9.192;2023-09-19T09:24:50;1.20;;;0.70;;
16731;SDS011;8484;50.904;9.192;2023-09-19T09:27:20;2.77;;;0.80;;
16731;SDS011;8484;50.904;9.192;2023-09-19T09:29:49;4.60;;;1.03;;
16731;SDS011;8484;50.904;9.192;2023-09-19T09:32:21;3.43;;;1.10;;
16731;SDS011;8484;50.904;9.192;2023-09-19T09:34:50;4.63;;;1.40;;
16731;SDS011;8484;50.904;9.192;2023-09-19T09:37:19;1.80;;;1.00;;
16731;SDS011;8484;50.904;9.192;2023-09-19T09:39:51;2.90;;;1.00;;
16731;SDS011;8484;50.904;9.192;2023-09-19T09:45:15;1.90;;;0.90;;
16731;SDS011;8484;50.904;9.192;2023-09-19T09:47:45;2.80;;;1.07;;
16731;SDS011;8484;50.904;9.192;2023-09-19T09:50:29;2.53;;;0.97;;
16731;SDS011;8484;50.904;9.192;2023-09-19T09:53:22;2.27;;;1.07;;
16731;SDS011;8484;50.904;9.192;2023-09-19T09:56:01;5.10;;;0.90;;
16731;SDS011;8484;50.904;9.192;2023-09-19T09:58:33;2.97;;;0.97;;
16731;SDS011;8484;50.904;9.192;2023-09-19T10:01:02;3.87;;;1.27;;
16731;SDS011;8484;50.904;9.192;2023-09-19T10:03:34;2.37;;;1.10;;
16731;SDS011;8484;50.904;9.192;2023-09-19T10:06:13;2.27;;;1.10;;
16731;SDS011;8484;50.904;9.192;2023-09-19T10:08:59;3.03;;;1.60;;
16731;SDS011;8484;50.904;9.192;2023-09-19T10:11:38;2.77;;;0.93;;
16731;SDS011;8484;50.904;9.192;2023-09-19T10:14:11;4.70;;;1.23;;
16731;SDS011;8484;50.904;9.192;2023-09-19T10:16:45;3.10;;;1.07;;
16731;SDS011;8484;50.904;9.192;2023-09-19T10:19:15;2.20;;;1.10;;
16731;SDS011;8484;50.904;9.192;2023-09-19T10:21:47;3.73;;;1.30;;
16731;SDS011;8484;50.904;9.192;2023-09-19T10:24:15;2.47;;;1.30;;
16731;SDS011;8484;50.904;9.192;2023-09-19T10:26:45;7.93;;;1.50;;
16731;SDS011;8484;50.904;9.192;2023-09-19T10:29:17;2.17;;;1.07;;
16731;SDS011;8484;50.904;9.192;2023-09-19T10:31:45;4.97;;;1.20;;
16731;SDS011;8484;50.904;9.192;2023-09-19T10:34:15;2.73;;;1.20;;
16731;SDS011;8484;50.904;9.192;2023-09-19T10:36:44;3.90;;;1.20;;
16731;SDS011;8484;50.904;9.192;2023-09-19T10:39:13;3.43;;;1.30;;
16731;SDS011;8484;50.904;9.192;2023-09-19T10:41:47;2.67;;;1.20;;
16731;SDS011;8484;50.904;9.192;2023-09-19T10:44:23;2.73;;;1.20;;
16731;SDS011;8484;50.904;9.192;2023-09-19T10:46:50;2.30;;;1.17;;
16731;SDS011;8484;50.904;9.192;2023-09-19T10:49:19;3.37;;;1.17;;
16731;SDS011;8484;50.904;9.192;2023-09-19T10:51:46;3.40;;;1.30;;
16731;SDS011;8484;50.904;9.192;2023-09-19T10:54:16;2.60;;;1.50;;
16731;SDS011;8484;50.904;9.192;2023-09-19T10:56:48;4.63;;;1.40;;
16731;SDS011;8484;50.904;9.192;2023-09-19T10:59:18;4.00;;;1.50;;
16731;SDS011;8484;50.904;9.192;2023-09-19T11:01:48;3.87;;;1.40;;
16731;SDS011;8484;50.904;9.192;2023-09-19T11:04:20;4.47;;;1.73;;
16731;SDS011;8484;50.904;9.192;2023-09-19T11:07:02;6.17;;;1.20;;
16731;SDS011;8484;50.904;9.192;2023-09-19T11:09:46;2.33;;;1.00;;
16731;SDS011;8484;50.904;9.192;2023-09-19T11:18:55;1.80;;;1.00;;
16731;SDS011;8484;50.904;9.192;2023-09-19T11:21:52;4.53;;;1.10;;
16731;SDS011;8484;50.904;9.192;2023-09-19T11:24:31;2.80;;;1.20;;
16731;SDS011;8484;50.904;9.192;2023-09-19T11:29:43;2.00;;;1.07;;
16731;SDS011;8484;50.904;9.192;2023-09-19T11:32:10;1.90;;;0.90;;
16731;SDS011;8484;50.904;9.192;2023-09-19T11:34:41;2.43;;;1.00;;
16731;SDS011;8484;50.904;9.192;2023-09-19T11:40:46;2.60;;;1.33;;
16731;SDS011;8484;50.904;9.192;2023-09-19T11:43:32;2.67;;;1.10;;
16731;SDS011;8484;50.904;9.192;2023-09-19T11:46:08;2.53;;;1.00;;
16731;SDS011;8484;50.904;9.192;2023-09-19T11:48:37;2.77;;;1.13;;
16731;SDS011;8484;50.904;9.192;2023-09-19T11:51:14;2.60;;;1.07;;
16731;SDS011;8484;50.904;9.192;2023-09-19T11:53:47;2.30;;;1.13;;
16731;SDS011;8484;50.904;9.192;2023-09-19T11:56:16;2.23;;;1.10;;
16731;SDS011;8484;50.904;9.192;2023-09-19T11:58:45;2.20;;;1.10;;
16731;SDS011;8484;50.904;9.192;2023-09-19T12:01:14;2.43;;;1.20;;
16731;SDS011;8484;50.904;9.192;2023-09-19T12:03:47;3.40;;;1.43;;
16731;SDS011;8484;50.904;9.192;2023-09-19T12:06:21;1.47;;;0.90;;
16731;SDS011;8484;50.904;9.192;2023-09-19T12:08:48;2.27;;;1.40;;
16731;SDS011;8484;50.904;9.192;2023-09-19T12:11:16;2.03;;;0.90;;
16731;SDS011;8484;50.904;9.192;2023-09-19T12:13:45;2.87;;;1.10;;
16731;SDS011;8484;50.904;9.192;2023-09-19T12:16:14;2.67;;;1.00;;
16731;SDS011;8484;50.904;9.192;2023-09-19T12:18:42;4.27;;;1.40;;
16731;SDS011;8484;50.904;9.192;2023-09-19T12:21:22;1.63;;;1.00;;
16731;SDS011;8484;50.904;9.192;2023-09-19T12:23:58;3.33;;;1.00;;
16731;SDS011;8484;50.904;9.192;2023-09-19T12:26:39;2.23;;;1.10;;
16731;SDS011;8484;50.904;9.192;2023-09-19T12:29:14;1.97;;;1.10;;
16731;SDS011;8484;50.904;9.192;2023-09-19T12:31:47;1.87;;;1.07;;
16731;SDS011;8484;50.904;9.192;2023-09-19T12:34:22;3.57;;;1.00;;
16731;SDS011;8484;50.904;9.192;2023-09-19T12:37:09;4.23;;;1.10;;
16731;SDS011;8484;50.904;9.192;2023-09-19T12:39:45;2.43;;;1.10;;
16731;SDS011;8484;50.904;9.192;2023-09-19T12:42:16;1.60;;;0.97;;
16731;SDS011;8484;50.904;9.192;2023-09-19T12:44:44;2.77;;;1.10;;
16731;SDS011;8484;50.904;9.192;2023-09-19T12:47:13;3.03;;;1.20;;
16731;SDS011;8484;50.904;9.192;2023-09-19T12:50:06;2.47;;;1.10;;
16731;SDS011;8484;50.904;9.192;2023-09-19T12:52:44;4.43;;;1.23;;
16731;SDS011;8484;50.904;9.192;2023-09-19T12:55:22;1.87;;;1.10;;
16731;SDS011;8484;50.904;9.192;2023-09-19T12:57:58;1.90;;;1.00;;
16731;SDS011;8484;50.904;9.192;2023-09-19T13:00:33;3.47;;;1.30;;
16731;SDS011;8484;50.904;9.192;2023-09-19T13:03:14;3.00;;;1.30;;
16731;SDS011;8484;50.904;9.192;2023-09-19T13:05:49;2.23;;;1.10;;
16731;SDS011;8484;50.904;9.192;2023-09-19T13:08:20;2.93;;;1.37;;
16731;SDS011;8484;50.904;9.192;2023-09-19T13:11:02;3.40;;;1.10;;
16731;SDS011;8484;50.904;9.192;2023-09-19T13:13:35;2.63;;;1.33;;
16731;SDS011;8484;50.904;9.192;2023-09-19T13:16:02;4.80;;;1.27;;
16731;SDS011;8484;50.904;9.192;2023-09-19T13:18:33;1.77;;;1.10;;
16731;SDS011;8484;50.904;9.192;2023-09-19T13:21:09;1.50;;;0.90;;
16731;SDS011;8484;50.904;9.192;2023-09-19T13:23:41;4.43;;;1.40;;
16731;SDS011;8484;50.904;9.192;2023-09-19T13:26:09;3.13;;;1.07;;
16731;SDS011;8484;50.904;9.192;2023-09-19T13:28:37;2.93;;;1.10;;
16731;SDS011;8484;50.904;9.192;2023-09-19T13:31:05;2.90;;;1.40;;
16731;SDS011;8484;50.904;9.192;2023-09-19T13:33:33;5.07;;;1.40;;
16731;SDS011;8484;50.904;9.192;2023-09-19T13:36:01;4.53;;;1.23;;
16731;SDS011;8484;50.904;9.192;2023-09-19T13:38:28;3.27;;;1.00;;
16731;SDS011;8484;50.904;9.192;2023-09-19T13:40:56;3.20;;;1.20;;
16731;SDS011;8484;50.904;9.192;2023-09-19T13:43:24;4.80;;;1.07;;
16731;SDS011;8484;50.904;9.192;2023-09-19T13:45:50;6.60;;;1.77;;
16731;SDS011;8484;50.904;9.192;2023-09-19T13:48:18;3.50;;;1.47;;
16731;SDS011;8484;50.904;9.192;2023-09-19T13:50:47;5.53;;;1.60;;
16731;SDS011;8484;50.904;9.192;2023-09-19T13:53:14;3.47;;;1.60;;
16731;SDS011;8484;50.904;9.192;2023-09-19T13:55:42;3.07;;;1.40;;
16731;SDS011;8484;50.904;9.192;2023-09-19T13:58:10;2.70;;;1.20;;
16731;SDS011;8484;50.904;9.192;2023-09-19T14:00:37;5.40;;;1.57;;
16731;SDS011;8484;50.904;9.192;2023-09-19T14:03:04;2.67;;;1.30;;
16731;SDS011;8484;50.904;9.192;2023-09-19T14:05:31;3.00;;;1.10;;
16731;SDS011;8484;50.904;9.192;2023-09-19T14:07:58;3.73;;;1.33;;
16731;SDS011;8484;50.904;9.192;2023-09-19T14:10:26;2.30;;;1.20;;
16731;SDS011;8484;50.904;9.192;2023-09-19T14:12:55;2.30;;;1.07;;
16731;SDS011;8484;50.904;9.192;2023-09-19T14:15:26;3.53;;;1.30;;
16731;SDS011;8484;50.904;9.192;2023-09-19T14:17:56;3.47;;;1.30;;
16731;SDS011;8484;50.904;9.192;2023-09-19T14:20:24;2.53;;;1.30;;
16731;SDS011;8484;50.904;9.192;2023-09-19T14:22:52;1.57;;;0.93;;
16731;SDS011;8484;50.904;9.192;2023-09-19T14:25:20;2.27;;;1.00;;
16731;SDS011;8484;50.904;9.192;2023-09-19T14:27:47;2.07;;;1.13;;
16731;SDS011;8484;50.904;9.192;2023-09-19T14:30:14;2.07;;;1.07;;
16731;SDS011;8484;50.904;9.192;2023-09-19T14:32:43;2.33;;;1.20;;
16731;SDS011;8484;50.904;9.192;2023-09-19T14:35:10;4.07;;;1.20;;
16731;SDS011;8484;50.904;9.192;2023-09-19T14:37:40;3.43;;;1.23;;
16731;SDS011;8484;50.904;9.192;2023-09-19T14:40:07;2.33;;;1.10;;
16731;SDS011;8484;50.904;9.192;2023-09-19T14:42:35;2.13;;;1.03;;
16731;SDS011;8484;50.904;9.192;2023-09-19T14:45:05;2.57;;;1.13;;
16731;SDS011;8484;50.904;9.192;2023-09-19T14:47:33;2.63;;;1.10;;
16731;SDS011;8484;50.904;9.192;2023-09-19T14:50:02;6.43;;;1.00;;
16731;SDS011;8484;50.904;9.192;2023-09-19T14:52:31;2.10;;;0.90;;
16731;SDS011;8484;50.904;9.192;2023-09-19T14:54:59;2.20;;;1.20;;
16731;SDS011;8484;50.904;9.192;2023-09-19T14:57:27;2.33;;;1.27;;
16731;SDS011;8484;50.904;9.192;2023-09-19T14:59:54;2.83;;;1.23;;
16731;SDS011;8484;50.904;9.192;2023-09-19T15:02:21;1.93;;;1.00;;
16731;SDS011;8484;50.904;9.192;2023-09-19T15:04:48;6.07;;;1.23;;
16731;SDS011;8484;50.904;9.192;2023-09-19T15:07:17;3.93;;;1.00;;
16731;SDS011;8484;50.904;9.192;2023-09-19T15:09:44;2.60;;;1.00;;
16731;SDS011;8484;50.904;9.192;2023-09-19T15:12:12;1.60;;;0.93;;
16731;SDS011;8484;50.904;9.192;2023-09-19T15:14:40;3.60;;;1.20;;
16731;SDS011;8484;50.904;9.192;2023-09-19T15:17:08;2.37;;;0.90;;
16731;SDS011;8484;50.904;9.192;2023-09-19T15:19:35;2.63;;;1.10;;
16731;SDS011;8484;50.904;9.192;2023-09-19T15:22:03;3.40;;;1.20;;
16731;SDS011;8484;50.904;9.192;2023-09-19T15:24:32;3.10;;;0.97;;
16731;SDS011;8484;50.904;9.192;2023-09-19T15:26:59;3.80;;;1.13;;
16731;SDS011;8484;50.904;9.192;2023-09-19T15:29:27;1.97;;;0.90;;
16731;SDS011;8484;50.904;9.192;2023-09-19T15:31:54;2.03;;;1.10;;
16731;SDS011;8484;50.904;9.192;2023-09-19T15:34:24;2.73;;;1.13;;